Time;durP1;ratioP1;P1;durP2;ratioP2;P2;SDS_P1;SDS_P2;PMS_P1;PMS_P2;Temp;Humidity;BMP_temperature;BMP_pressure;BME280_temperature;BME280_humidity;BME280_pressure;Samples;Min_cycle;Max_cycle;Signal;HPM_P1;HPM_P2
2021/11/07 00:01:28;;;;;;;61.03;18.73;;;;;;;2.51;100.00;99636.38;5113196;27;20053;-68
2021/11/07 00:04:07;;;;;;;78.68;18.92;;;;;;;2.44;100.00;99637.03;5111875;27;20027;-68
2021/11/07 00:06:36;;;;;;;79.75;18.90;;;;;;;2.46;100.00;99627.91;5114569;27;20391;-67
2021/11/07 00:09:17;;;;;;;69.38;19.55;;;;;;;2.49;100.00;99624.13;5133649;27;20055;-68
2021/11/07 00:11:43;;;;;;;59.58;17.45;;;;;;;2.46;100.00;99619.06;5133793;27;20015;-67
2021/11/07 00:14:10;;;;;;;95.75;19.67;;;;;;;2.29;100.00;99629.34;5113534;27;20055;-68
2021/11/07 00:16:38;;;;;;;84.50;17.80;;;;;;;2.25;100.00;99649.28;5115414;27;20055;-68
2021/11/07 00:19:13;;;;;;;58.47;17.92;;;;;;;2.26;100.00;99626.13;5125936;27;20023;-67
2021/11/07 00:21:46;;;;;;;68.47;18.23;;;;;;;2.31;100.00;99634.59;5134098;27;20027;-68
2021/11/07 00:24:22;;;;;;;66.07;17.17;;;;;;;2.33;100.00;99652.16;5124306;27;20388;-68
2021/11/07 00:27:50;;;;;;;61.15;17.42;;;;;;;2.40;100.00;99657.81;5114251;27;20024;-68
2021/11/07 00:29:50;;;;;;;62.05;18.17;;;;;;;2.27;100.00;99668.69;5103419;28;20042;-68
2021/11/07 00:37:37;;;;;;;57.72;18.00;;;;;;;2.35;100.00;99649.34;5113503;27;20066;-68
2021/11/07 00:43:00;;;;;;;68.47;18.27;;;;;;;2.30;100.00;99628.38;5112978;27;20046;-68
2021/11/07 00:51:23;;;;;;;51.67;15.40;;;;;;;2.37;100.00;99612.69;5112248;27;20074;-68
2021/11/07 00:54:06;;;;;;;48.00;15.70;;;;;;;2.29;100.00;99620.50;5113113;28;20110;-67
2021/11/07 00:56:51;;;;;;;59.78;16.88;;;;;;;2.24;100.00;99623.56;5113991;27;20070;-68
2021/11/07 01:01:47;;;;;;;46.70;16.17;;;;;;;2.28;100.00;99627.69;5117897;27;20091;-68
2021/11/07 01:04:14;;;;;;;42.60;15.20;;;;;;;2.30;100.00;99611.50;5126206;27;20034;-69
2021/11/07 01:06:41;;;;;;;52.28;16.75;;;;;;;2.12;100.00;99605.91;5129132;27;20034;-69
2021/11/07 01:09:08;;;;;;;52.30;17.25;;;;;;;2.14;100.00;99595.94;5121955;27;20030;-72
2021/11/07 01:11:33;;;;;;;50.08;17.35;;;;;;;2.09;100.00;99596.34;5139808;27;20023;-72
2021/11/07 01:13:58;;;;;;;52.90;17.70;;;;;;;2.06;100.00;99575.25;5150133;27;20047;-72
2021/11/07 01:16:24;;;;;;;54.00;17.00;;;;;;;2.17;100.00;99582.34;5136516;28;20026;-71
2021/11/07 01:18:49;;;;;;;43.25;16.27;;;;;;;2.25;100.00;99574.50;5138369;27;20016;-72
2021/11/07 01:21:17;;;;;;;49.15;16.77;;;;;;;2.23;100.00;99581.84;5137695;27;20077;-72
2021/11/07 01:24:00;;;;;;;47.95;17.67;;;;;;;2.29;100.00;99573.28;5141920;27;20023;-72
2021/11/07 01:26:39;;;;;;;51.50;15.93;;;;;;;2.17;100.00;99560.97;5151045;27;20058;-72
2021/11/07 01:29:12;;;;;;;53.25;17.55;;;;;;;2.17;100.00;99574.31;5146644;27;20004;-71
2021/11/07 01:31:39;;;;;;;55.45;18.55;;;;;;;2.18;100.00;99579.53;5143281;27;20023;-72
2021/11/07 01:34:07;;;;;;;53.65;17.45;;;;;;;2.23;100.00;99581.84;5152691;27;20029;-71
2021/11/07 01:44:19;;;;;;;54.63;17.75;;;;;;;2.18;100.00;99558.19;5115541;27;20080;-72
2021/11/07 01:46:50;;;;;;;50.95;15.88;;;;;;;2.21;100.00;99541.06;5134393;27;20464;-72
2021/11/07 01:49:20;;;;;;;49.65;16.33;;;;;;;2.26;100.00;99538.84;5132659;27;20464;-72
2021/11/07 01:51:52;;;;;;;47.33;15.50;;;;;;;2.31;100.00;99552.66;5114409;28;20051;-72
2021/11/07 01:54:32;;;;;;;48.88;16.80;;;;;;;2.30;100.00;99556.28;5117308;27;20057;-72
2021/11/07 01:56:58;;;;;;;48.03;15.80;;;;;;;2.17;100.00;99529.81;5113943;27;20787;-72
2021/11/07 01:59:23;;;;;;;47.65;17.13;;;;;;;2.21;100.00;99517.03;5112569;27;20047;-72
2021/11/07 02:01:58;;;;;;;47.53;17.15;;;;;;;2.16;100.00;99533.44;5123365;27;20019;-72
2021/11/07 02:04:24;;;;;;;57.38;19.10;;;;;;;2.09;100.00;99526.94;5127053;27;20052;-72
2021/11/07 02:06:49;;;;;;;54.20;17.50;;;;;;;2.19;100.00;99532.34;5130939;27;20027;-72
2021/11/07 02:09:15;;;;;;;45.90;16.90;;;;;;;2.10;100.00;99511.78;5126662;27;20047;-72
2021/11/07 02:11:40;;;;;;;49.47;17.70;;;;;;;2.29;100.00;99519.06;5123892;27;20057;-72
2021/11/07 02:14:06;;;;;;;53.25;18.30;;;;;;;2.23;100.00;99504.41;5125862;27;20080;-72
2021/11/07 02:16:32;;;;;;;44.65;16.35;;;;;;;2.22;100.00;99505.38;5125393;27;20483;-72
2021/11/07 02:18:57;;;;;;;44.50;16.10;;;;;;;2.34;100.00;99514.16;5130508;27;20114;-72
2021/11/07 02:21:23;;;;;;;44.65;17.10;;;;;;;2.25;100.00;99533.63;5114750;27;20038;-72
2021/11/07 02:23:49;;;;;;;44.20;17.42;;;;;;;2.26;100.00;99535.34;5115718;27;20039;-72
2021/11/07 02:26:14;;;;;;;43.97;17.00;;;;;;;2.09;100.00;99513.59;5115127;27;20389;-72
2021/11/07 02:28:44;;;;;;;43.85;16.25;;;;;;;2.17;100.00;99512.94;5114896;28;20024;-71
2021/11/07 02:31:13;;;;;;;42.67;16.58;;;;;;;2.23;100.00;99512.41;5124024;27;20077;-72
2021/11/07 02:33:39;;;;;;;42.65;16.73;;;;;;;2.14;100.00;99503.38;5137940;27;20058;-72
2021/11/07 02:36:08;;;;;;;45.35;18.02;;;;;;;2.19;100.00;99501.13;5136788;27;20053;-72
2021/11/07 02:38:35;;;;;;;45.50;16.13;;;;;;;2.13;100.00;99499.00;5134467;28;20429;-71
2021/11/07 02:41:00;;;;;;;41.75;16.13;;;;;;;2.25;100.00;99493.59;5136816;27;20027;-72
2021/11/07 02:43:25;;;;;;;39.72;15.15;;;;;;;2.26;100.00;99501.47;5135695;28;20095;-72
2021/11/07 02:45:51;;;;;;;41.50;16.25;;;;;;;2.13;100.00;99477.66;5148499;27;20023;-71
2021/11/07 02:48:16;;;;;;;43.70;16.08;;;;;;;2.31;100.00;99509.94;5147833;27;20023;-71
2021/11/07 02:50:42;;;;;;;39.00;16.80;;;;;;;2.17;100.00;99503.13;5154562;27;20080;-72
2021/11/07 02:53:07;;;;;;;38.15;15.80;;;;;;;2.24;100.00;99500.75;5154397;27;20030;-72
2021/11/07 02:55:33;;;;;;;40.95;16.85;;;;;;;2.21;100.00;99514.38;5142121;27;20011;-72
2021/11/07 02:57:59;;;;;;;39.80;15.10;;;;;;;2.22;100.00;99516.06;5126361;28;20023;-71
2021/11/07 03:00:29;;;;;;;32.70;14.18;;;;;;;2.14;100.00;99515.88;5119009;27;20022;-72
2021/11/07 03:02:54;;;;;;;36.97;15.20;;;;;;;1.90;100.00;99478.78;5126346;27;20026;-72
2021/11/07 03:05:20;;;;;;;35.63;14.77;;;;;;;1.98;100.00;99519.00;5123164;27;20023;-72
2021/11/07 03:07:46;;;;;;;40.47;15.07;;;;;;;1.81;100.00;99509.78;5128733;27;20518;-72
2021/11/07 03:10:14;;;;;;;37.28;15.15;;;;;;;1.79;100.00;99509.06;5138116;27;20023;-72
2021/11/07 03:12:39;;;;;;;32.78;14.73;;;;;;;1.77;100.00;99513.66;5154579;27;20003;-72
2021/11/07 03:15:08;;;;;;;33.88;15.55;;;;;;;1.81;100.00;99515.13;5143345;27;20275;-73
2021/11/07 03:17:33;;;;;;;41.83;14.98;;;;;;;1.72;100.00;99518.56;5140314;27;20043;-73
2021/11/07 03:19:59;;;;;;;39.70;15.80;;;;;;;1.72;100.00;99521.22;5134862;28;20047;-73
2021/11/07 03:22:28;;;;;;;39.10;15.35;;;;;;;1.69;100.00;99532.16;5136087;28;20016;-72
2021/11/07 03:24:56;;;;;;;39.38;15.90;;;;;;;1.51;100.00;99508.69;5144904;28;20084;-72
2021/11/07 03:27:29;;;;;;;45.17;16.48;;;;;;;1.62;100.00;99522.97;5120733;27;20054;-72
2021/11/07 03:29:57;;;;;;;38.08;16.77;;;;;;;1.51;100.00;99519.38;5112076;28;20016;-72
2021/11/07 03:32:26;;;;;;;38.08;15.98;;;;;;;1.31;100.00;99504.22;5112434;27;20556;-72
2021/11/07 03:34:59;;;;;;;45.22;15.55;;;;;;;1.37;100.00;99527.69;5111861;28;20035;-72
2021/11/07 03:37:28;;;;;;;43.88;15.10;;;;;;;1.20;100.00;99490.91;5124171;28;20056;-72
2021/11/07 03:39:57;;;;;;;37.90;14.85;;;;;;;1.22;100.00;99526.28;5135637;28;20023;-72
2021/11/07 03:42:24;;;;;;;31.85;11.88;;;;;;;1.17;100.00;99516.00;5131904;28;20110;-72
2021/11/07 03:44:51;;;;;;;40.83;15.88;;;;;;;1.14;100.00;99513.56;5143426;28;20047;-72
2021/11/07 03:47:17;;;;;;;37.58;15.68;;;;;;;1.15;100.00;99511.75;5136542;27;20034;-72
2021/11/07 03:49:43;;;;;;;38.72;15.60;;;;;;;1.09;100.00;99505.13;5133641;28;20022;-72
2021/11/07 03:52:10;;;;;;;49.25;15.98;;;;;;;1.11;100.00;99500.50;5151644;27;20052;-72
2021/11/07 03:54:37;;;;;;;38.95;14.80;;;;;;;1.00;100.00;99500.56;5147607;27;20043;-72
2021/11/07 03:57:03;;;;;;;43.17;15.30;;;;;;;0.79;100.00;99484.50;5139207;28;20032;-72
2021/11/07 03:59:30;;;;;;;39.40;14.57;;;;;;;0.83;100.00;99489.44;5138460;28;20028;-72
2021/11/07 04:01:56;;;;;;;36.67;14.20;;;;;;;0.81;100.00;99458.56;5135407;27;20057;-72
2021/11/07 04:04:22;;;;;;;38.03;15.02;;;;;;;0.64;100.00;99450.13;5134937;28;20039;-72
2021/11/07 04:06:48;;;;;;;35.70;14.02;;;;;;;0.68;100.00;99455.19;5132895;28;20023;-72
2021/11/07 04:09:13;;;;;;;33.90;14.95;;;;;;;0.85;100.00;99463.53;5121602;28;20024;-72
2021/11/07 04:11:40;;;;;;;41.15;15.93;;;;;;;0.93;100.00;99475.38;5114094;28;20038;-72
2021/11/07 04:14:07;;;;;;;35.30;13.77;;;;;;;0.77;100.00;99468.63;5115773;27;20077;-72
2021/11/07 04:16:34;;;;;;;33.95;13.77;;;;;;;0.54;100.00;99456.31;5110662;27;20597;-72
2021/11/07 04:18:59;;;;;;;39.17;15.07;;;;;;;0.61;100.00;99476.19;5121815;28;20054;-72
2021/11/07 04:21:25;;;;;;;39.60;15.32;;;;;;;0.43;100.00;99460.69;5126771;27;20027;-72
2021/11/07 04:23:51;;;;;;;40.38;14.80;;;;;;;0.50;100.00;99487.69;5109113;28;20389;-72
2021/11/07 04:26:16;;;;;;;32.60;14.35;;;;;;;0.41;100.00;99491.91;5114443;27;20024;-72
2021/11/07 04:28:42;;;;;;;36.92;15.25;;;;;;;0.37;100.00;99492.28;5112453;27;20023;-72
2021/11/07 04:31:08;;;;;;;39.78;15.10;;;;;;;0.39;100.00;99479.69;5119220;27;20024;-72
2021/11/07 04:33:33;;;;;;;42.35;15.57;;;;;;;0.42;100.00;99484.78;5112540;27;20031;-72
2021/11/07 04:35:59;;;;;;;38.53;15.57;;;;;;;0.22;100.00;99471.22;5112996;27;20035;-72
2021/11/07 04:38:25;;;;;;;40.00;15.00;;;;;;;0.30;100.00;99472.44;5115327;27;20042;-72
2021/11/07 04:40:51;;;;;;;37.55;14.80;;;;;;;0.13;100.00;99457.78;5112529;27;20032;-73
2021/11/07 04:43:17;;;;;;;38.13;14.98;;;;;;;0.21;100.00;99456.25;5112960;27;20040;-72
2021/11/07 04:45:43;;;;;;;39.85;15.85;;;;;;;0.27;100.00;99465.56;5132760;27;20030;-72
2021/11/07 04:48:09;;;;;;;38.83;15.70;;;;;;;0.26;100.00;99468.31;5116379;27;20649;-72
2021/11/07 04:50:38;;;;;;;46.25;16.38;;;;;;;0.37;100.00;99447.88;5112587;28;20019;-72
2021/11/07 04:53:08;;;;;;;46.58;16.58;;;;;;;0.53;100.00;99450.16;5114539;27;20028;-72
2021/11/07 04:55:36;;;;;;;41.55;17.15;;;;;;;0.55;100.00;99452.69;5112406;28;20035;-72
2021/11/07 04:58:03;;;;;;;46.17;16.90;;;;;;;0.59;100.00;99452.31;5111499;27;20114;-72
2021/11/07 05:00:31;;;;;;;44.03;16.45;;;;;;;0.50;100.00;99438.91;5111733;28;20034;-72
2021/11/07 05:02:57;;;;;;;38.70;14.95;;;;;;;0.52;100.00;99445.78;5113236;27;20059;-72
2021/11/07 05:05:22;;;;;;;42.97;16.42;;;;;;;0.48;100.00;99443.53;5130053;27;20091;-71
2021/11/07 05:07:49;;;;;;;39.83;14.27;;;;;;;0.41;100.00;99445.81;5112307;27;20026;-72
2021/11/07 05:10:14;;;;;;;38.22;14.75;;;;;;;0.31;100.00;99428.88;5111436;27;20020;-72
2021/11/07 05:12:39;;;;;;;45.38;17.08;;;;;;;0.20;100.00;99435.91;5111947;28;20513;-72
2021/11/07 05:15:05;;;;;;;35.25;15.57;;;;;;;0.25;100.00;99426.72;5115933;27;20254;-71
2021/11/07 05:17:31;;;;;;;38.33;14.75;;;;;;;0.43;100.00;99406.63;5123007;27;20030;-72
2021/11/07 05:19:56;;;;;;;37.70;14.88;;;;;;;0.48;100.00;99399.09;5118456;27;20037;-72
2021/11/07 05:22:22;;;;;;;35.10;14.75;;;;;;;0.59;100.00;99419.53;5112387;27;20023;-71
2021/11/07 05:24:47;;;;;;;34.75;15.10;;;;;;;0.57;100.00;99424.97;5123126;27;20114;-71
2021/11/07 05:27:12;;;;;;;34.75;14.80;;;;;;;0.59;100.00;99419.53;5116722;27;20023;-72
2021/11/07 05:29:38;;;;;;;39.58;14.27;;;;;;;0.44;100.00;99421.59;5123787;27;20024;-72
2021/11/07 05:32:05;;;;;;;33.25;13.98;;;;;;;0.59;100.00;99430.19;5112327;27;20031;-72
2021/11/07 05:34:31;;;;;;;31.77;13.48;;;;;;;0.61;100.00;99420.25;5117849;27;20113;-73
2021/11/07 05:36:57;;;;;;;30.05;12.18;;;;;;;0.49;100.00;99406.09;5111618;27;20035;-72
2021/11/07 05:39:22;;;;;;;24.45;11.52;;;;;;;0.56;100.00;99386.00;5112310;28;20489;-72
2021/11/07 05:41:48;;;;;;;26.80;11.65;;;;;;;0.57;100.00;99382.38;5110426;28;20042;-72
2021/11/07 05:44:14;;;;;;;30.75;12.98;;;;;;;0.38;100.00;99385.69;5111587;27;20038;-72
2021/11/07 05:46:40;;;;;;;25.30;12.50;;;;;;;0.37;100.00;99367.19;5114499;27;20492;-72
2021/11/07 05:49:06;;;;;;;29.88;11.98;;;;;;;0.36;100.00;99371.66;5110894;27;20026;-72
2021/11/07 05:51:31;;;;;;;31.55;12.50;;;;;;;0.38;100.00;99376.84;5110971;27;20024;-72
2021/11/07 05:53:57;;;;;;;28.67;12.35;;;;;;;0.29;100.00;99373.13;5113233;27;20019;-72
2021/11/07 05:56:23;;;;;;;26.92;12.30;;;;;;;0.33;100.00;99363.09;5113610;27;20028;-72
2021/11/07 05:58:48;;;;;;;25.05;11.80;;;;;;;0.35;100.00;99374.44;5111021;27;20023;-72
2021/11/07 06:01:14;;;;;;;29.98;12.05;;;;;;;0.29;100.00;99356.31;5129408;27;20072;-72
2021/11/07 06:03:39;;;;;;;27.70;12.30;;;;;;;0.26;100.00;99351.22;5115797;27;20031;-72
2021/11/07 06:06:05;;;;;;;25.08;12.52;;;;;;;0.32;100.00;99356.06;5125137;27;20020;-72
2021/11/07 06:08:30;;;;;;;23.88;11.80;;;;;;;0.19;100.00;99357.06;5110432;27;20110;-72
2021/11/07 06:10:57;;;;;;;25.42;12.27;;;;;;;0.22;100.00;99338.19;5109995;27;20484;-72
2021/11/07 06:13:23;;;;;;;25.83;11.90;;;;;;;0.19;100.00;99354.41;5111615;27;20024;-72
2021/11/07 06:15:48;;;;;;;27.55;12.38;;;;;;;0.14;100.00;99345.94;5112963;27;20066;-72
2021/11/07 06:18:14;;;;;;;26.15;12.18;;;;;;;0.32;100.00;99343.63;5110469;28;20458;-72
2021/11/07 06:20:39;;;;;;;29.95;12.45;;;;;;;0.41;100.00;99334.84;5125988;27;20059;-72
2021/11/07 06:23:05;;;;;;;25.77;12.93;;;;;;;0.35;100.00;99324.72;5112552;27;20024;-72
2021/11/07 06:25:32;;;;;;;24.67;11.85;;;;;;;0.58;100.00;99343.28;5111485;28;20435;-72
2021/11/07 06:27:57;;;;;;;26.42;12.13;;;;;;;0.64;100.00;99332.97;5111332;27;20756;-72
2021/11/07 06:30:24;;;;;;;27.88;12.23;;;;;;;0.76;100.00;99327.59;5118760;27;20039;-72
2021/11/07 06:32:49;;;;;;;25.42;11.60;;;;;;;0.81;100.00;99322.72;5110650;27;20030;-71
2021/11/07 06:35:15;;;;;;;26.67;12.45;;;;;;;0.93;100.00;99345.69;5125045;27;20031;-76
2021/11/07 06:37:42;;;;;;;23.15;11.32;;;;;;;1.06;100.00;99346.34;5121851;27;20055;-76
2021/11/07 06:40:10;;;;;;;22.75;11.15;;;;;;;1.07;100.00;99334.72;5121067;27;20101;-77
2021/11/07 06:42:36;;;;;;;20.95;10.82;;;;;;;1.17;100.00;99331.25;5133201;27;20607;-77
2021/11/07 06:45:02;;;;;;;20.13;10.77;;;;;;;1.15;100.00;99322.53;5135786;27;20023;-77
2021/11/07 06:47:28;;;;;;;21.70;11.30;;;;;;;1.53;100.00;99348.59;5146245;27;20648;-76
2021/11/07 06:49:53;;;;;;;23.77;11.45;;;;;;;1.58;100.00;99332.19;5145164;27;20015;-77
2021/11/07 06:52:19;;;;;;;26.00;12.02;;;;;;;2.46;100.00;99330.63;5123177;27;20108;-76
2021/11/07 06:54:45;;;;;;;17.67;9.85;;;;;;;3.95;97.11;99341.66;5141780;27;20022;-78
2021/11/07 06:57:11;;;;;;;16.90;9.02;;;;;;;5.04;84.55;99336.28;5113117;28;20028;-77
2021/11/07 06:59:36;;;;;;;16.20;8.18;;;;;;;5.98;79.31;99289.94;5109887;27;20464;-75
2021/11/07 07:02:02;;;;;;;15.57;7.63;;;;;;;6.71;75.59;99304.56;5131197;27;20027;-76
2021/11/07 07:04:27;;;;;;;13.68;7.78;;;;;;;6.76;72.30;99299.53;5138269;27;20503;-75
2021/11/07 07:06:52;;;;;;;12.52;7.25;;;;;;;7.25;71.38;99289.56;5127290;27;20028;-76
2021/11/07 07:09:25;;;;;;;13.55;6.78;;;;;;;7.92;67.66;99272.25;5139773;27;20044;-75
2021/11/07 07:11:55;;;;;;;14.52;7.15;;;;;;;8.16;66.93;99308.19;5138003;27;20033;-76
2021/11/07 07:14:36;;;;;;;12.85;7.28;;;;;;;8.00;66.13;99296.47;5137853;27;20021;-76
2021/11/07 07:27:51;;;;;;;17.13;8.80;;;;;;;9.06;61.50;99300.38;5125564;28;20093;-76
2021/11/07 07:30:37;;;;;;;18.00;8.88;;;;;;;8.79;62.50;99274.81;5130376;27;20023;-76
2021/11/07 07:35:47;;;;;;;16.30;8.27;;;;;;;7.04;68.76;99297.34;5129796;27;20030;-76
2021/11/07 07:38:13;;;;;;;13.88;7.68;;;;;;;6.51;71.93;99286.03;5130218;28;20031;-75
2021/11/07 07:40:38;;;;;;;12.80;7.88;;;;;;;6.83;71.42;99305.91;5114705;28;20031;-76
2021/11/07 07:43:04;;;;;;;12.35;7.10;;;;;;;5.72;75.84;99276.53;5129445;28;20031;-77
2021/11/07 07:45:30;;;;;;;12.93;7.88;;;;;;;5.24;79.39;99304.75;5124349;28;20028;-70
2021/11/07 07:47:56;;;;;;;15.95;8.68;;;;;;;4.47;83.60;99287.50;5124364;27;20088;-73
2021/11/07 07:50:22;;;;;;;14.02;8.25;;;;;;;4.38;86.08;99302.66;5114714;28;20076;-75
2021/11/07 07:52:48;;;;;;;12.57;7.20;;;;;;;4.22;87.99;99278.38;5115061;28;20026;-71
2021/11/07 07:55:16;;;;;;;14.95;7.63;;;;;;;4.32;88.38;99288.03;5113491;27;20031;-71
2021/11/07 07:57:41;;;;;;;13.48;7.90;;;;;;;4.13;88.18;99280.13;5110247;28;20023;-74
2021/11/07 08:00:09;;;;;;;13.95;7.05;;;;;;;4.03;87.47;99285.53;5110840;27;20026;-73
2021/11/07 08:02:34;;;;;;;13.88;7.30;;;;;;;4.03;88.42;99257.91;5125526;27;20393;-74
2021/11/07 08:05:00;;;;;;;13.85;7.95;;;;;;;4.07;88.30;99254.78;5121053;27;20031;-75
2021/11/07 08:07:27;;;;;;;14.13;7.95;;;;;;;4.10;88.48;99270.53;5124191;27;20076;-75
2021/11/07 08:09:54;;;;;;;13.73;7.60;;;;;;;4.34;87.60;99269.13;5134044;27;20015;-76
2021/11/07 08:12:19;;;;;;;11.27;6.53;;;;;;;4.51;86.57;99268.28;5115705;27;20023;-76
2021/11/07 08:14:45;;;;;;;17.02;7.20;;;;;;;4.56;85.56;99252.59;5113770;27;20024;-76
2021/11/07 08:17:10;;;;;;;12.30;6.97;;;;;;;4.73;85.68;99261.63;5121107;27;20027;-74
2021/11/07 08:19:35;;;;;;;13.57;7.32;;;;;;;4.77;86.74;99248.75;5115542;27;20032;-74
2021/11/07 08:22:01;;;;;;;16.08;7.88;;;;;;;4.97;85.91;99242.19;5114284;27;20100;-72
2021/11/07 08:24:27;;;;;;;12.95;7.68;;;;;;;5.16;85.65;99242.97;5126818;27;20612;-73
2021/11/07 08:26:53;;;;;;;14.23;7.88;;;;;;;5.47;84.92;99254.06;5124486;27;20755;-73
2021/11/07 08:29:19;;;;;;;15.52;7.57;;;;;;;5.76;83.57;99242.97;5114677;27;20031;-73
2021/11/07 08:31:49;;;;;;;12.63;7.75;;;;;;;5.59;83.72;99235.88;5130501;27;20027;-74
2021/11/07 08:34:14;;;;;;;;;;;;;;;5.26;85.53;99238.34;5115908;27;20023;-73
2021/11/07 08:39:17;;;;;;;18.80;7.97;;;;;;;4.78;88.29;99253.13;5122968;27;20158;-74
2021/11/07 08:41:54;;;;;;;15.40;8.00;;;;;;;4.67;89.48;99229.25;5120720;27;20087;-74
2021/11/07 09:01:05;;;;;;;15.05;8.35;;;;;;;5.45;87.62;99207.78;5153273;27;20057;-75
2021/11/07 09:03:43;;;;;;;14.68;8.20;;;;;;;5.84;85.72;99197.38;5144566;27;20047;-73
2021/11/07 09:08:53;;;;;;;15.13;8.40;;;;;;;6.17;81.58;99175.13;5144511;27;20119;-74
2021/11/07 09:11:20;;;;;;;16.20;7.50;;;;;;;6.28;81.57;99185.56;5157019;27;20031;-74
2021/11/07 09:13:47;;;;;;;11.57;6.70;;;;;;;6.47;80.35;99190.63;5145189;27;20110;-65
2021/11/07 09:16:14;;;;;;;12.13;7.28;;;;;;;6.44;79.47;99182.88;5152573;27;20038;-72
2021/11/07 09:18:40;;;;;;;12.77;7.40;;;;;;;6.77;79.40;99174.81;5136702;27;20074;-74
2021/11/07 09:23:44;;;;;;;11.90;6.63;;;;;;;7.51;74.99;99183.53;5142497;27;20035;-74
2021/11/07 09:29:03;;;;;;;13.45;7.15;;;;;;;6.71;77.00;99178.19;5140664;27;20007;-72
2021/11/07 09:34:08;;;;;;;11.75;6.25;;;;;;;6.48;77.87;99178.84;5148904;27;20042;-69
2021/11/07 09:36:37;;;;;;;;;;;;;;;6.57;79.23;99193.13;5137645;27;20027;-72
2021/11/07 09:44:07;;;;;;;10.07;6.10;;;;;;;7.02;76.19;99199.81;5115931;27;20022;-72
2021/11/07 09:46:43;;;;;;;10.95;6.35;;;;;;;7.03;76.14;99182.66;5119383;27;20038;-69
2021/11/07 09:49:20;;;;;;;10.82;6.30;;;;;;;7.07;75.64;99183.16;5116715;27;20028;-69
2021/11/07 09:51:54;;;;;;;12.98;6.35;;;;;;;7.21;75.05;99185.16;5128489;27;20564;-68
2021/11/07 09:54:20;;;;;;;11.73;5.88;;;;;;;7.31;74.69;99190.31;5114951;27;20036;-74
2021/11/07 09:56:52;;;;;;;12.77;6.32;;;;;;;7.41;74.72;99202.59;5117077;27;20384;-69
2021/11/07 09:59:19;;;;;;;10.52;6.43;;;;;;;7.24;74.04;99200.97;5125557;27;20015;-68
2021/11/07 10:01:46;;;;;;;12.18;5.82;;;;;;;6.78;75.37;99201.50;5111302;27;20555;-69
2021/11/07 10:04:13;;;;;;;12.27;6.60;;;;;;;6.77;75.50;99194.47;5111274;28;20028;-69
2021/11/07 10:06:44;;;;;;;10.35;5.88;;;;;;;6.62;76.58;99196.16;5120050;27;20137;-69
2021/11/07 10:09:11;;;;;;;12.70;6.70;;;;;;;6.78;77.31;99185.38;5111155;27;20035;-68
2021/11/07 10:12:06;;;;;;;12.30;6.65;;;;;;;6.97;76.73;99184.19;5114847;27;20028;-69
2021/11/07 10:14:57;;;;;;;11.38;6.30;;;;;;;7.31;74.60;99158.03;5109843;28;20024;-68
2021/11/07 10:17:28;;;;;;;10.52;6.25;;;;;;;7.43;74.18;99153.94;5111065;28;20024;-69
2021/11/07 10:20:04;;;;;;;9.90;5.57;;;;;;;7.77;73.34;99142.84;5112643;27;20039;-69
2021/11/07 10:22:31;;;;;;;9.73;5.60;;;;;;;8.25;71.75;99134.59;5128783;27;20031;-69
2021/11/07 10:24:58;;;;;;;11.00;5.32;;;;;;;8.60;70.41;99133.19;5114272;27;20023;-69
2021/11/07 10:27:23;;;;;;;9.13;6.10;;;;;;;8.99;69.38;99138.34;5111211;27;20024;-69
2021/11/07 10:29:51;;;;;;;8.95;5.30;;;;;;;9.48;66.34;99136.94;5110643;28;20389;-69
2021/11/07 10:32:34;;;;;;;9.02;5.10;;;;;;;10.00;64.88;99137.75;5113387;27;20034;-69
2021/11/07 10:35:42;;;;;;;6.93;4.45;;;;;;;10.44;62.75;99132.19;5110375;27;20023;-69
2021/11/07 10:52:38;;;;;;;6.82;4.38;;;;;;;11.71;59.13;99108.63;5111718;27;20088;-69
2021/11/07 10:55:17;;;;;;;8.88;4.55;;;;;;;11.53;58.33;99101.06;5110562;27;20472;-69
2021/11/07 10:57:47;;;;;;;9.52;4.82;;;;;;;11.79;58.54;99100.31;5110306;27;20043;-69
2021/11/07 11:00:36;;;;;;;6.15;4.03;;;;;;;12.23;56.85;99097.09;5113231;27;20039;-69
2021/11/07 11:03:08;;;;;;;6.82;4.25;;;;;;;12.98;54.80;99085.19;5119410;27;20037;-70
2021/11/07 11:05:46;;;;;;;7.72;4.10;;;;;;;14.90;50.12;99067.75;5116061;27;20023;-69
2021/11/07 11:08:37;;;;;;;5.95;3.60;;;;;;;14.43;51.07;99078.19;5126128;27;20027;-69
2021/11/07 11:14:00;;;;;;;5.28;2.70;;;;;;;11.34;58.87;99067.41;5110300;28;20548;-69
2021/11/07 11:35:12;;;;;;;3.70;2.42;;;;;;;12.44;57.99;99058.09;5118276;27;20035;-69
2021/11/07 11:40:26;;;;;;;8.40;2.58;;;;;;;12.08;59.66;99044.94;5115515;27;20040;-70
2021/11/07 11:42:57;;;;;;;5.85;2.53;;;;;;;11.92;60.53;99031.75;5119661;27;20031;-69
2021/11/07 11:45:35;;;;;;;5.55;2.70;;;;;;;11.99;60.00;99051.59;5114296;27;20027;-70
2021/11/07 11:58:46;;;;;;;3.17;2.10;;;;;;;10.58;67.45;99034.91;5128651;27;20496;-69
2021/11/07 12:01:24;;;;;;;5.40;1.33;;;;;;;10.26;68.98;99035.28;5119618;27;20063;-69
2021/11/07 12:09:37;;;;;;;1.95;0.70;;;;;;;10.05;69.98;99027.19;5115649;27;20023;-69
2021/11/07 12:15:05;;;;;;;2.55;0.70;;;;;;;10.15;71.25;99032.28;5114267;27;20032;-68
2021/11/07 12:17:34;;;;;;;2.63;0.63;;;;;;;9.77;71.46;99008.22;5117213;27;20104;-68
2021/11/07 12:20:01;;;;;;;1.63;0.80;;;;;;;9.93;71.81;99026.91;5113402;28;20118;-69
2021/11/07 12:22:33;;;;;;;1.58;0.77;;;;;;;9.88;72.45;99016.66;5128106;27;20035;-68
2021/11/07 12:25:02;;;;;;;2.50;1.05;;;;;;;9.78;72.93;99029.66;5118766;27;20027;-68
2021/11/07 12:27:42;;;;;;;1.05;0.63;;;;;;;9.92;72.96;99029.78;5117285;27;20028;-68
2021/11/07 12:30:28;;;;;;;1.60;0.75;;;;;;;9.60;75.63;99002.25;5120521;27;20054;-68
2021/11/07 12:33:15;;;;;;;0.82;0.60;;;;;;;9.66;76.57;99025.78;5129282;27;20034;-68
2021/11/07 12:36:02;;;;;;;1.20;0.55;;;;;;;9.61;77.23;99015.53;5114451;27;20112;-69
2021/11/07 12:41:24;;;;;;;0.88;0.35;;;;;;;9.40;81.82;99013.66;5115055;27;20637;-68
2021/11/07 12:43:52;;;;;;;1.58;0.65;;;;;;;9.24;83.77;99030.09;5128077;27;20031;-68
2021/11/07 12:46:30;;;;;;;1.05;0.60;;;;;;;9.26;84.16;99021.81;5116067;27;20024;-67
2021/11/07 12:49:01;;;;;;;1.63;0.77;;;;;;;9.22;84.04;99005.13;5113429;27;20027;-69
2021/11/07 12:51:36;;;;;;;2.92;1.05;;;;;;;9.51;83.82;99009.66;5112807;28;20023;-69
2021/11/07 12:54:25;;;;;;;1.17;0.82;;;;;;;9.61;83.60;99009.31;5115394;27;20488;-68
2021/11/07 12:57:03;;;;;;;1.52;0.90;;;;;;;9.65;83.18;99016.00;5108793;27;20027;-68
2021/11/07 12:59:33;;;;;;;1.13;0.80;;;;;;;9.65;83.03;99010.59;5114122;27;20039;-67
2021/11/07 13:02:12;;;;;;;3.20;0.70;;;;;;;9.69;82.94;99009.19;5112667;27;20073;-67
2021/11/07 13:04:42;;;;;;;1.17;0.70;;;;;;;9.76;82.70;99009.25;5126097;27;20059;-70
2021/11/07 13:07:12;;;;;;;0.73;0.70;;;;;;;9.87;81.56;98998.75;5114961;27;20020;-69
2021/11/07 13:09:43;;;;;;;;;;;;;;;9.74;83.16;99006.75;5117789;27;20024;-68
2021/11/07 13:12:22;;;;;;;1.38;0.57;;;;;;;10.24;80.70;99010.31;5114326;27;19920;-66
2021/11/07 13:15:17;;;;;;;1.48;0.60;;;;;;;9.92;79.71;99005.47;5116588;27;20068;-67
2021/11/07 13:28:39;;;;;;;0.90;0.45;;;;;;;9.39;83.35;99009.28;5115304;27;20039;-68
2021/11/07 13:31:22;;;;;;;2.13;0.75;;;;;;;9.36;83.21;99009.69;5114551;27;20024;-68
2021/11/07 13:33:49;;;;;;;1.70;0.90;;;;;;;9.46;83.59;99014.78;5114026;27;20035;-68
2021/11/07 13:36:18;;;;;;;1.00;0.80;;;;;;;9.30;83.37;99007.75;5112107;28;20102;-67
2021/11/07 13:38:49;;;;;;;4.55;0.95;;;;;;;9.13;84.71;99009.00;5112317;27;20026;-67
2021/11/07 13:41:18;;;;;;;2.40;0.73;;;;;;;9.11;85.12;99009.16;5117243;27;20034;-67
2021/11/07 13:43:56;;;;;;;2.42;1.08;;;;;;;9.17;84.99;99000.31;5119406;27;20540;-67
2021/11/07 13:46:21;;;;;;;0.95;0.68;;;;;;;9.14;85.90;99006.13;5117597;27;20035;-68
2021/11/07 13:49:01;;;;;;;2.53;0.90;;;;;;;8.97;85.18;98981.19;5112665;27;20030;-68
2021/11/07 13:51:27;;;;;;;2.90;1.05;;;;;;;9.10;86.29;99003.97;5112943;27;20019;-68
2021/11/07 13:54:05;;;;;;;1.30;0.93;;;;;;;8.83;87.40;98991.97;5111342;27;20610;-68
2021/11/07 13:56:31;;;;;;;1.70;0.70;;;;;;;8.78;87.91;99006.06;5114350;27;20028;-68
2021/11/07 13:58:57;;;;;;;2.25;1.10;;;;;;;8.81;88.14;98996.75;5113476;27;20031;-68
2021/11/07 14:01:22;;;;;;;1.23;0.73;;;;;;;8.91;88.01;98998.13;5119667;27;20039;-68